sensor_id;sensor_type;location;lat;lon;timestamp;P1;durP1;ratioP1;P2;durP2;ratioP2
14603;SDS011;7388;51.078;13.740;2023-04-24T00:02:15;6.10;;;5.60;;
14603;SDS011;7388;51.078;13.740;2023-04-24T00:04:41;6.20;;;5.40;;
14603;SDS011;7388;51.078;13.740;2023-04-24T00:07:10;6.90;;;5.80;;
14603;SDS011;7388;51.078;13.740;2023-04-24T00:09:36;6.25;;;5.20;;
14603;SDS011;7388;51.078;13.740;2023-04-24T00:12:02;7.23;;;6.33;;
14603;SDS011;7388;51.078;13.740;2023-04-24T00:14:31;7.85;;;6.18;;
14603;SDS011;7388;51.078;13.740;2023-04-24T00:16:56;7.40;;;5.30;;
14603;SDS011;7388;51.078;13.740;2023-04-24T00:19:22;6.03;;;5.43;;
14603;SDS011;7388;51.078;13.740;2023-04-24T00:21:48;6.83;;;5.60;;
14603;SDS011;7388;51.078;13.740;2023-04-24T00:24:16;7.50;;;6.72;;
14603;SDS011;7388;51.078;13.740;2023-04-24T00:26:43;7.07;;;6.35;;
14603;SDS011;7388;51.078;13.740;2023-04-24T00:29:08;7.50;;;4.70;;
14603;SDS011;7388;51.078;13.740;2023-04-24T00:31:34;5.90;;;4.87;;
14603;SDS011;7388;51.078;13.740;2023-04-24T00:34:00;8.10;;;5.57;;
14603;SDS011;7388;51.078;13.740;2023-04-24T00:36:27;6.15;;;5.40;;
14603;SDS011;7388;51.078;13.740;2023-04-24T00:38:53;8.27;;;5.67;;
14603;SDS011;7388;51.078;13.740;2023-04-24T00:41:19;6.35;;;4.72;;
14603;SDS011;7388;51.078;13.740;2023-04-24T00:43:46;6.93;;;4.20;;
14603;SDS011;7388;51.078;13.740;2023-04-24T00:46:12;6.70;;;5.10;;
14603;SDS011;7388;51.078;13.740;2023-04-24T00:48:39;7.90;;;5.93;;
14603;SDS011;7388;51.078;13.740;2023-04-24T00:51:05;5.55;;;4.68;;
14603;SDS011;7388;51.078;13.740;2023-04-24T00:53:31;7.18;;;4.93;;
14603;SDS011;7388;51.078;13.740;2023-04-24T00:55:57;5.25;;;4.60;;
14603;SDS011;7388;51.078;13.740;2023-04-24T00:58:25;5.32;;;4.82;;
14603;SDS011;7388;51.078;13.740;2023-04-24T01:00:52;10.02;;;5.50;;
14603;SDS011;7388;51.078;13.740;2023-04-24T01:03:22;5.15;;;4.63;;
14603;SDS011;7388;51.078;13.740;2023-04-24T01:05:51;5.75;;;5.15;;
14603;SDS011;7388;51.078;13.740;2023-04-24T01:08:19;6.90;;;5.63;;
14603;SDS011;7388;51.078;13.740;2023-04-24T01:10:45;5.78;;;4.88;;
14603;SDS011;7388;51.078;13.740;2023-04-24T01:13:13;6.50;;;5.32;;
14603;SDS011;7388;51.078;13.740;2023-04-24T01:15:39;6.05;;;5.32;;
14603;SDS011;7388;51.078;13.740;2023-04-24T01:18:05;5.83;;;5.30;;
14603;SDS011;7388;51.078;13.740;2023-04-24T01:20:31;6.50;;;4.53;;
14603;SDS011;7388;51.078;13.740;2023-04-24T01:22:58;6.50;;;4.22;;
14603;SDS011;7388;51.078;13.740;2023-04-24T01:25:24;6.30;;;4.70;;
14603;SDS011;7388;51.078;13.740;2023-04-24T01:27:52;7.25;;;5.63;;
14603;SDS011;7388;51.078;13.740;2023-04-24T01:30:18;4.90;;;4.50;;
14603;SDS011;7388;51.078;13.740;2023-04-24T01:32:43;6.90;;;5.93;;
14603;SDS011;7388;51.078;13.740;2023-04-24T01:35:10;6.75;;;5.07;;
14603;SDS011;7388;51.078;13.740;2023-04-24T01:37:36;7.20;;;5.07;;
14603;SDS011;7388;51.078;13.740;2023-04-24T01:40:02;7.37;;;5.13;;
14603;SDS011;7388;51.078;13.740;2023-04-24T01:42:30;7.10;;;5.72;;
14603;SDS011;7388;51.078;13.740;2023-04-24T01:44:56;6.70;;;5.00;;
14603;SDS011;7388;51.078;13.740;2023-04-24T01:47:22;6.60;;;5.53;;
14603;SDS011;7388;51.078;13.740;2023-04-24T01:49:49;6.72;;;6.07;;
14603;SDS011;7388;51.078;13.740;2023-04-24T01:52:15;5.93;;;5.32;;
14603;SDS011;7388;51.078;13.740;2023-04-24T01:54:43;5.85;;;4.60;;
14603;SDS011;7388;51.078;13.740;2023-04-24T01:57:08;8.10;;;5.70;;
14603;SDS011;7388;51.078;13.740;2023-04-24T01:59:35;6.05;;;5.30;;
14603;SDS011;7388;51.078;13.740;2023-04-24T02:02:01;7.15;;;5.35;;
14603;SDS011;7388;51.078;13.740;2023-04-24T02:04:28;7.20;;;6.20;;
14603;SDS011;7388;51.078;13.740;2023-04-24T02:06:54;6.40;;;5.80;;
14603;SDS011;7388;51.078;13.740;2023-04-24T02:09:19;6.83;;;5.50;;
14603;SDS011;7388;51.078;13.740;2023-04-24T02:11:45;7.50;;;5.77;;
14603;SDS011;7388;51.078;13.740;2023-04-24T02:14:11;5.23;;;4.73;;
14603;SDS011;7388;51.078;13.740;2023-04-24T02:16:37;6.37;;;5.30;;
14603;SDS011;7388;51.078;13.740;2023-04-24T02:19:03;5.80;;;4.80;;
14603;SDS011;7388;51.078;13.740;2023-04-24T02:21:29;8.60;;;5.80;;
14603;SDS011;7388;51.078;13.740;2023-04-24T02:23:56;7.57;;;5.22;;
14603;SDS011;7388;51.078;13.740;2023-04-24T02:26:22;6.03;;;5.45;;
14603;SDS011;7388;51.078;13.740;2023-04-24T02:28:48;7.37;;;5.20;;
14603;SDS011;7388;51.078;13.740;2023-04-24T02:31:14;5.30;;;4.70;;
14603;SDS011;7388;51.078;13.740;2023-04-24T02:33:40;7.82;;;6.55;;
14603;SDS011;7388;51.078;13.740;2023-04-24T02:36:06;8.40;;;6.50;;
14603;SDS011;7388;51.078;13.740;2023-04-24T02:38:31;8.23;;;7.07;;
14603;SDS011;7388;51.078;13.740;2023-04-24T02:40:57;7.60;;;6.90;;
14603;SDS011;7388;51.078;13.740;2023-04-24T02:43:23;11.03;;;5.60;;
14603;SDS011;7388;51.078;13.740;2023-04-24T02:45:49;7.23;;;5.40;;
14603;SDS011;7388;51.078;13.740;2023-04-24T02:48:14;6.57;;;5.87;;
14603;SDS011;7388;51.078;13.740;2023-04-24T02:50:40;17.07;;;5.43;;
14603;SDS011;7388;51.078;13.740;2023-04-24T02:53:06;7.73;;;6.47;;
14603;SDS011;7388;51.078;13.740;2023-04-24T02:55:33;6.88;;;6.18;;
14603;SDS011;7388;51.078;13.740;2023-04-24T02:57:59;7.97;;;6.47;;
14603;SDS011;7388;51.078;13.740;2023-04-24T03:00:25;9.97;;;5.87;;
14603;SDS011;7388;51.078;13.740;2023-04-24T03:02:51;6.63;;;5.23;;
14603;SDS011;7388;51.078;13.740;2023-04-24T03:05:16;6.67;;;5.10;;
14603;SDS011;7388;51.078;13.740;2023-04-24T03:07:42;7.07;;;5.97;;
14603;SDS011;7388;51.078;13.740;2023-04-24T03:10:08;6.93;;;5.70;;
14603;SDS011;7388;51.078;13.740;2023-04-24T03:12:34;7.45;;;5.05;;
14603;SDS011;7388;51.078;13.740;2023-04-24T03:15:00;6.60;;;5.20;;
14603;SDS011;7388;51.078;13.740;2023-04-24T03:17:25;8.80;;;6.83;;
14603;SDS011;7388;51.078;13.740;2023-04-24T03:19:51;8.80;;;6.27;;
14603;SDS011;7388;51.078;13.740;2023-04-24T03:22:17;6.37;;;5.77;;
14603;SDS011;7388;51.078;13.740;2023-04-24T03:24:42;5.63;;;5.07;;
14603;SDS011;7388;51.078;13.740;2023-04-24T03:27:08;7.07;;;5.80;;
14603;SDS011;7388;51.078;13.740;2023-04-24T03:29:34;5.50;;;4.47;;
14603;SDS011;7388;51.078;13.740;2023-04-24T03:31:59;7.87;;;5.37;;
14603;SDS011;7388;51.078;13.740;2023-04-24T03:34:25;7.43;;;4.23;;
14603;SDS011;7388;51.078;13.740;2023-04-24T03:36:51;5.03;;;3.90;;
14603;SDS011;7388;51.078;13.740;2023-04-24T03:39:17;6.10;;;3.78;;
14603;SDS011;7388;51.078;13.740;2023-04-24T03:41:43;6.73;;;4.20;;
14603;SDS011;7388;51.078;13.740;2023-04-24T03:44:09;5.20;;;4.57;;
14603;SDS011;7388;51.078;13.740;2023-04-24T03:46:34;5.40;;;4.60;;
14603;SDS011;7388;51.078;13.740;2023-04-24T03:49:00;6.30;;;4.63;;
14603;SDS011;7388;51.078;13.740;2023-04-24T03:51:26;4.73;;;3.57;;
14603;SDS011;7388;51.078;13.740;2023-04-24T03:53:53;7.60;;;4.03;;
14603;SDS011;7388;51.078;13.740;2023-04-24T03:56:18;6.40;;;4.57;;
14603;SDS011;7388;51.078;13.740;2023-04-24T03:58:45;5.57;;;4.93;;
14603;SDS011;7388;51.078;13.740;2023-04-24T04:01:11;6.00;;;4.80;;
14603;SDS011;7388;51.078;13.740;2023-04-24T04:03:37;15.10;;;5.47;;
14603;SDS011;7388;51.078;13.740;2023-04-24T04:06:02;6.53;;;5.60;;
14603;SDS011;7388;51.078;13.740;2023-04-24T04:08:28;8.90;;;4.93;;
14603;SDS011;7388;51.078;13.740;2023-04-24T04:10:54;3.40;;;3.10;;
14603;SDS011;7388;51.078;13.740;2023-04-24T04:13:20;5.63;;;5.03;;
14603;SDS011;7388;51.078;13.740;2023-04-24T04:15:45;7.07;;;4.97;;
14603;SDS011;7388;51.078;13.740;2023-04-24T04:18:11;3.80;;;3.50;;
14603;SDS011;7388;51.078;13.740;2023-04-24T04:20:37;7.40;;;5.20;;
14603;SDS011;7388;51.078;13.740;2023-04-24T04:23:03;5.60;;;5.07;;
14603;SDS011;7388;51.078;13.740;2023-04-24T04:25:28;7.23;;;4.50;;
14603;SDS011;7388;51.078;13.740;2023-04-24T04:27:54;6.40;;;4.20;;
14603;SDS011;7388;51.078;13.740;2023-04-24T04:30:20;4.47;;;4.00;;
14603;SDS011;7388;51.078;13.740;2023-04-24T04:32:46;5.22;;;3.30;;
14603;SDS011;7388;51.078;13.740;2023-04-24T04:35:12;4.50;;;3.17;;
14603;SDS011;7388;51.078;13.740;2023-04-24T04:37:38;5.50;;;2.73;;
14603;SDS011;7388;51.078;13.740;2023-04-24T04:40:05;5.13;;;2.55;;
14603;SDS011;7388;51.078;13.740;2023-04-24T04:42:31;2.90;;;2.50;;
14603;SDS011;7388;51.078;13.740;2023-04-24T04:44:59;5.88;;;2.53;;
14603;SDS011;7388;51.078;13.740;2023-04-24T04:47:25;3.33;;;2.38;;
14603;SDS011;7388;51.078;13.740;2023-04-24T04:49:53;3.70;;;2.60;;
14603;SDS011;7388;51.078;13.740;2023-04-24T04:52:19;3.00;;;2.05;;
14603;SDS011;7388;51.078;13.740;2023-04-24T04:54:45;7.17;;;2.83;;
14603;SDS011;7388;51.078;13.740;2023-04-24T04:57:11;5.90;;;1.80;;
14603;SDS011;7388;51.078;13.740;2023-04-24T04:59:37;2.85;;;2.03;;
14603;SDS011;7388;51.078;13.740;2023-04-24T05:02:03;3.07;;;2.37;;
14603;SDS011;7388;51.078;13.740;2023-04-24T05:04:29;4.90;;;2.77;;
14603;SDS011;7388;51.078;13.740;2023-04-24T05:06:55;2.67;;;2.22;;
14603;SDS011;7388;51.078;13.740;2023-04-24T05:09:21;4.20;;;2.53;;
14603;SDS011;7388;51.078;13.740;2023-04-24T05:11:46;4.60;;;3.33;;
14603;SDS011;7388;51.078;13.740;2023-04-24T05:14:12;9.83;;;2.77;;
14603;SDS011;7388;51.078;13.740;2023-04-24T05:16:38;3.90;;;2.67;;
14603;SDS011;7388;51.078;13.740;2023-04-24T05:19:05;4.40;;;3.10;;
14603;SDS011;7388;51.078;13.740;2023-04-24T05:21:31;4.00;;;2.70;;
14603;SDS011;7388;51.078;13.740;2023-04-24T05:23:57;3.33;;;2.30;;
14603;SDS011;7388;51.078;13.740;2023-04-24T05:26:22;3.60;;;2.90;;
14603;SDS011;7388;51.078;13.740;2023-04-24T05:28:48;6.73;;;2.90;;
14603;SDS011;7388;51.078;13.740;2023-04-24T05:31:14;3.78;;;2.97;;
14603;SDS011;7388;51.078;13.740;2023-04-24T05:33:42;3.85;;;2.65;;
14603;SDS011;7388;51.078;13.740;2023-04-24T05:36:08;6.03;;;3.13;;
14603;SDS011;7388;51.078;13.740;2023-04-24T05:38:34;5.90;;;2.33;;
14603;SDS011;7388;51.078;13.740;2023-04-24T05:40:59;3.47;;;2.73;;
14603;SDS011;7388;51.078;13.740;2023-04-24T05:43:25;4.77;;;2.20;;
14603;SDS011;7388;51.078;13.740;2023-04-24T05:45:51;2.53;;;1.97;;
14603;SDS011;7388;51.078;13.740;2023-04-24T05:48:18;4.85;;;1.92;;
14603;SDS011;7388;51.078;13.740;2023-04-24T05:50:44;8.75;;;2.00;;
14603;SDS011;7388;51.078;13.740;2023-04-24T05:53:10;2.43;;;1.50;;
14603;SDS011;7388;51.078;13.740;2023-04-24T05:55:36;2.80;;;1.77;;
14603;SDS011;7388;51.078;13.740;2023-04-24T05:58:02;3.83;;;2.53;;
14603;SDS011;7388;51.078;13.740;2023-04-24T06:00:28;3.10;;;1.70;;
14603;SDS011;7388;51.078;13.740;2023-04-24T06:02:54;4.93;;;1.95;;
14603;SDS011;7388;51.078;13.740;2023-04-24T06:05:20;3.58;;;1.85;;
14603;SDS011;7388;51.078;13.740;2023-04-24T06:07:46;4.40;;;2.67;;
14603;SDS011;7388;51.078;13.740;2023-04-24T06:10:12;2.55;;;1.50;;
14603;SDS011;7388;51.078;13.740;2023-04-24T06:12:37;3.37;;;1.67;;
14603;SDS011;7388;51.078;13.740;2023-04-24T06:15:03;3.10;;;1.60;;
14603;SDS011;7388;51.078;13.740;2023-04-24T06:17:30;3.45;;;1.63;;
14603;SDS011;7388;51.078;13.740;2023-04-24T06:19:57;2.55;;;1.20;;
14603;SDS011;7388;51.078;13.740;2023-04-24T06:22:22;3.30;;;1.50;;
14603;SDS011;7388;51.078;13.740;2023-04-24T06:24:48;3.07;;;1.50;;
14603;SDS011;7388;51.078;13.740;2023-04-24T06:27:14;6.83;;;1.80;;
14603;SDS011;7388;51.078;13.740;2023-04-24T06:29:39;3.97;;;1.70;;
14603;SDS011;7388;51.078;13.740;2023-04-24T06:32:05;3.00;;;1.40;;
14603;SDS011;7388;51.078;13.740;2023-04-24T06:34:31;3.47;;;1.60;;
14603;SDS011;7388;51.078;13.740;2023-04-24T06:36:59;1.60;;;1.15;;
14603;SDS011;7388;51.078;13.740;2023-04-24T06:39:25;3.80;;;1.88;;
14603;SDS011;7388;51.078;13.740;2023-04-24T06:41:50;6.80;;;1.30;;
14603;SDS011;7388;51.078;13.740;2023-04-24T06:44:16;7.63;;;2.80;;
14603;SDS011;7388;51.078;13.740;2023-04-24T06:46:42;2.93;;;2.10;;
14603;SDS011;7388;51.078;13.740;2023-04-24T06:49:08;2.07;;;1.30;;
14603;SDS011;7388;51.078;13.740;2023-04-24T06:51:33;2.30;;;1.33;;
14603;SDS011;7388;51.078;13.740;2023-04-24T06:53:59;2.57;;;1.60;;
14603;SDS011;7388;51.078;13.740;2023-04-24T06:56:25;2.53;;;1.10;;
14603;SDS011;7388;51.078;13.740;2023-04-24T06:58:51;3.40;;;1.50;;
14603;SDS011;7388;51.078;13.740;2023-04-24T07:01:18;2.28;;;1.50;;
14603;SDS011;7388;51.078;13.740;2023-04-24T07:03:44;1.70;;;1.33;;
14603;SDS011;7388;51.078;13.740;2023-04-24T07:06:09;1.80;;;1.43;;
14603;SDS011;7388;51.078;13.740;2023-04-24T07:08:38;3.00;;;1.70;;
14603;SDS011;7388;51.078;13.740;2023-04-24T07:11:04;3.30;;;1.40;;
14603;SDS011;7388;51.078;13.740;2023-04-24T07:13:30;3.40;;;1.58;;
14603;SDS011;7388;51.078;13.740;2023-04-24T07:15:56;2.93;;;1.30;;
14603;SDS011;7388;51.078;13.740;2023-04-24T07:18:22;3.47;;;1.10;;
14603;SDS011;7388;51.078;13.740;2023-04-24T07:20:48;2.05;;;1.20;;
14603;SDS011;7388;51.078;13.740;2023-04-24T07:23:15;3.15;;;1.15;;
14603;SDS011;7388;51.078;13.740;2023-04-24T07:25:41;1.58;;;0.70;;
14603;SDS011;7388;51.078;13.740;2023-04-24T07:28:07;2.83;;;1.13;;
14603;SDS011;7388;51.078;13.740;2023-04-24T07:30:33;4.70;;;1.33;;
14603;SDS011;7388;51.078;13.740;2023-04-24T07:32:59;2.93;;;1.30;;
14603;SDS011;7388;51.078;13.740;2023-04-24T07:35:25;1.83;;;1.07;;
14603;SDS011;7388;51.078;13.740;2023-04-24T07:37:55;2.20;;;1.20;;
14603;SDS011;7388;51.078;13.740;2023-04-24T07:40:21;2.20;;;1.00;;
14603;SDS011;7388;51.078;13.740;2023-04-24T07:42:47;2.28;;;1.05;;
14603;SDS011;7388;51.078;13.740;2023-04-24T07:45:15;4.43;;;1.55;;
14603;SDS011;7388;51.078;13.740;2023-04-24T07:47:42;2.63;;;1.30;;
14603;SDS011;7388;51.078;13.740;2023-04-24T07:50:09;2.25;;;1.23;;
14603;SDS011;7388;51.078;13.740;2023-04-24T07:52:35;1.95;;;0.80;;
14603;SDS011;7388;51.078;13.740;2023-04-24T07:55:01;3.38;;;1.17;;
14603;SDS011;7388;51.078;13.740;2023-04-24T07:57:28;1.83;;;1.53;;
14603;SDS011;7388;51.078;13.740;2023-04-24T07:59:54;2.07;;;1.50;;
14603;SDS011;7388;51.078;13.740;2023-04-24T08:02:20;5.38;;;1.45;;
14603;SDS011;7388;51.078;13.740;2023-04-24T08:04:51;2.00;;;1.25;;
14603;SDS011;7388;51.078;13.740;2023-04-24T08:07:20;3.37;;;1.07;;
14603;SDS011;7388;51.078;13.740;2023-04-24T08:09:46;2.23;;;1.30;;
14603;SDS011;7388;51.078;13.740;2023-04-24T08:12:12;4.80;;;1.47;;
14603;SDS011;7388;51.078;13.740;2023-04-24T08:14:37;2.47;;;1.07;;
14603;SDS011;7388;51.078;13.740;2023-04-24T08:17:03;2.83;;;1.00;;
14603;SDS011;7388;51.078;13.740;2023-04-24T08:19:29;1.70;;;1.20;;
14603;SDS011;7388;51.078;13.740;2023-04-24T08:21:55;1.70;;;0.83;;
14603;SDS011;7388;51.078;13.740;2023-04-24T08:24:21;1.60;;;1.10;;
14603;SDS011;7388;51.078;13.740;2023-04-24T08:26:47;1.40;;;1.10;;
14603;SDS011;7388;51.078;13.740;2023-04-24T08:29:17;3.10;;;1.17;;
14603;SDS011;7388;51.078;13.740;2023-04-24T08:31:42;1.70;;;1.10;;
14603;SDS011;7388;51.078;13.740;2023-04-24T08:34:09;2.03;;;1.17;;
14603;SDS011;7388;51.078;13.740;2023-04-24T08:36:35;7.03;;;1.47;;
14603;SDS011;7388;51.078;13.740;2023-04-24T08:39:02;1.95;;;1.33;;
14603;SDS011;7388;51.078;13.740;2023-04-24T08:41:27;2.90;;;1.03;;
14603;SDS011;7388;51.078;13.740;2023-04-24T08:43:53;1.50;;;1.20;;
14603;SDS011;7388;51.078;13.740;2023-04-24T08:46:23;2.75;;;1.38;;
14603;SDS011;7388;51.078;13.740;2023-04-24T08:48:50;1.80;;;1.10;;
14603;SDS011;7388;51.078;13.740;2023-04-24T08:51:17;2.43;;;1.03;;
14603;SDS011;7388;51.078;13.740;2023-04-24T08:53:43;4.43;;;1.27;;
14603;SDS011;7388;51.078;13.740;2023-04-24T08:56:11;5.47;;;1.20;;
14603;SDS011;7388;51.078;13.740;2023-04-24T08:58:38;2.07;;;1.00;;
14603;SDS011;7388;51.078;13.740;2023-04-24T09:01:04;3.63;;;1.10;;
14603;SDS011;7388;51.078;13.740;2023-04-24T09:03:30;5.13;;;2.80;;
14603;SDS011;7388;51.078;13.740;2023-04-24T09:05:58;3.33;;;0.83;;
14603;SDS011;7388;51.078;13.740;2023-04-24T09:08:25;8.97;;;1.37;;
14603;SDS011;7388;51.078;13.740;2023-04-24T09:10:53;2.90;;;1.00;;
14603;SDS011;7388;51.078;13.740;2023-04-24T09:13:19;1.67;;;1.10;;
14603;SDS011;7388;51.078;13.740;2023-04-24T09:15:45;1.80;;;1.20;;
14603;SDS011;7388;51.078;13.740;2023-04-24T09:18:11;1.90;;;0.90;;
14603;SDS011;7388;51.078;13.740;2023-04-24T09:23:34;3.77;;;1.67;;
14603;SDS011;7388;51.078;13.740;2023-04-24T09:26:01;3.92;;;1.08;;
14603;SDS011;7388;51.078;13.740;2023-04-24T09:28:34;5.10;;;1.47;;
14603;SDS011;7388;51.078;13.740;2023-04-24T09:31:05;1.65;;;0.95;;
14603;SDS011;7388;51.078;13.740;2023-04-24T09:33:37;2.80;;;1.00;;
14603;SDS011;7388;51.078;13.740;2023-04-24T09:36:02;3.40;;;1.57;;
14603;SDS011;7388;51.078;13.740;2023-04-24T09:40:59;2.23;;;1.40;;
14603;SDS011;7388;51.078;13.740;2023-04-24T09:43:30;2.83;;;1.00;;
14603;SDS011;7388;51.078;13.740;2023-04-24T09:45:56;2.00;;;1.10;;
14603;SDS011;7388;51.078;13.740;2023-04-24T09:48:30;1.70;;;1.03;;
14603;SDS011;7388;51.078;13.740;2023-04-24T09:50:56;5.63;;;1.23;;
14603;SDS011;7388;51.078;13.740;2023-04-24T09:53:25;1.70;;;0.90;;
14603;SDS011;7388;51.078;13.740;2023-04-24T09:55:52;1.67;;;1.07;;
14603;SDS011;7388;51.078;13.740;2023-04-24T09:58:18;2.40;;;1.17;;
14603;SDS011;7388;51.078;13.740;2023-04-24T10:00:53;4.20;;;1.43;;
14603;SDS011;7388;51.078;13.740;2023-04-24T10:03:20;2.23;;;1.10;;
14603;SDS011;7388;51.078;13.740;2023-04-24T10:05:46;1.30;;;0.80;;
14603;SDS011;7388;51.078;13.740;2023-04-24T10:08:12;5.33;;;1.17;;
14603;SDS011;7388;51.078;13.740;2023-04-24T10:10:40;2.38;;;1.13;;
14603;SDS011;7388;51.078;13.740;2023-04-24T10:13:13;2.78;;;0.73;;
14603;SDS011;7388;51.078;13.740;2023-04-24T10:15:40;3.10;;;1.10;;
14603;SDS011;7388;51.078;13.740;2023-04-24T10:18:07;4.35;;;1.40;;
14603;SDS011;7388;51.078;13.740;2023-04-24T10:20:35;2.47;;;1.20;;
14603;SDS011;7388;51.078;13.740;2023-04-24T10:23:02;1.80;;;1.13;;
14603;SDS011;7388;51.078;13.740;2023-04-24T10:25:29;2.05;;;0.98;;
14603;SDS011;7388;51.078;13.740;2023-04-24T10:27:57;4.43;;;0.90;;
14603;SDS011;7388;51.078;13.740;2023-04-24T10:30:25;2.67;;;1.10;;
14603;SDS011;7388;51.078;13.740;2023-04-24T10:32:52;2.92;;;0.95;;
14603;SDS011;7388;51.078;13.740;2023-04-24T10:35:18;3.30;;;1.90;;
14603;SDS011;7388;51.078;13.740;2023-04-24T10:37:50;1.73;;;0.90;;
14603;SDS011;7388;51.078;13.740;2023-04-24T10:40:39;2.08;;;1.08;;
14603;SDS011;7388;51.078;13.740;2023-04-24T10:43:05;2.43;;;0.97;;
14603;SDS011;7388;51.078;13.740;2023-04-24T10:45:37;2.50;;;0.80;;
14603;SDS011;7388;51.078;13.740;2023-04-24T10:48:04;1.83;;;0.83;;
14603;SDS011;7388;51.078;13.740;2023-04-24T10:51:10;2.47;;;0.90;;
14603;SDS011;7388;51.078;13.740;2023-04-24T10:53:28;1.87;;;0.90;;
14603;SDS011;7388;51.078;13.740;2023-04-24T10:56:00;1.93;;;1.13;;
14603;SDS011;7388;51.078;13.740;2023-04-24T10:58:39;2.17;;;1.23;;
14603;SDS011;7388;51.078;13.740;2023-04-24T11:01:24;2.78;;;0.82;;
14603;SDS011;7388;51.078;13.740;2023-04-24T11:03:54;3.07;;;1.07;;
14603;SDS011;7388;51.078;13.740;2023-04-24T11:06:34;2.60;;;1.37;;
14603;SDS011;7388;51.078;13.740;2023-04-24T11:09:04;3.37;;;1.17;;
14603;SDS011;7388;51.078;13.740;2023-04-24T11:11:34;3.03;;;1.40;;
14603;SDS011;7388;51.078;13.740;2023-04-24T11:14:02;1.13;;;0.55;;
14603;SDS011;7388;51.078;13.740;2023-04-24T11:16:32;1.53;;;0.90;;
14603;SDS011;7388;51.078;13.740;2023-04-24T11:21:41;1.45;;;0.82;;
14603;SDS011;7388;51.078;13.740;2023-04-24T11:25:06;1.83;;;0.93;;
14603;SDS011;7388;51.078;13.740;2023-04-24T11:27:16;2.95;;;1.10;;
14603;SDS011;7388;51.078;13.740;2023-04-24T11:29:47;2.47;;;1.25;;
14603;SDS011;7388;51.078;13.740;2023-04-24T11:32:19;2.95;;;1.13;;
14603;SDS011;7388;51.078;13.740;2023-04-24T11:34:45;2.10;;;1.30;;
14603;SDS011;7388;51.078;13.740;2023-04-24T11:37:12;1.73;;;0.90;;
14603;SDS011;7388;51.078;13.740;2023-04-24T11:39:39;1.67;;;1.08;;
14603;SDS011;7388;51.078;13.740;2023-04-24T11:42:05;1.50;;;1.03;;
14603;SDS011;7388;51.078;13.740;2023-04-24T11:44:33;4.53;;;1.10;;
14603;SDS011;7388;51.078;13.740;2023-04-24T11:46:59;1.30;;;0.82;;
14603;SDS011;7388;51.078;13.740;2023-04-24T11:49:25;2.03;;;1.00;;
14603;SDS011;7388;51.078;13.740;2023-04-24T11:51:54;2.13;;;0.60;;
14603;SDS011;7388;51.078;13.740;2023-04-24T11:54:20;2.43;;;1.07;;
14603;SDS011;7388;51.078;13.740;2023-04-24T11:56:47;2.30;;;1.00;;
14603;SDS011;7388;51.078;13.740;2023-04-24T11:59:15;1.50;;;0.88;;
14603;SDS011;7388;51.078;13.740;2023-04-24T12:01:47;2.60;;;1.33;;
14603;SDS011;7388;51.078;13.740;2023-04-24T12:04:15;2.75;;;1.35;;
14603;SDS011;7388;51.078;13.740;2023-04-24T12:09:27;1.57;;;0.97;;
14603;SDS011;7388;51.078;13.740;2023-04-24T12:11:53;1.90;;;1.07;;
14603;SDS011;7388;51.078;13.740;2023-04-24T12:14:22;2.50;;;1.95;;
14603;SDS011;7388;51.078;13.740;2023-04-24T12:16:48;1.50;;;1.05;;
14603;SDS011;7388;51.078;13.740;2023-04-24T12:19:21;1.88;;;1.20;;
14603;SDS011;7388;51.078;13.740;2023-04-24T12:22:00;2.15;;;1.55;;
14603;SDS011;7388;51.078;13.740;2023-04-24T12:24:31;1.70;;;1.00;;
14603;SDS011;7388;51.078;13.740;2023-04-24T12:26:57;2.80;;;1.85;;
14603;SDS011;7388;51.078;13.740;2023-04-24T12:29:23;3.67;;;1.38;;
14603;SDS011;7388;51.078;13.740;2023-04-24T12:31:50;1.83;;;1.30;;
14603;SDS011;7388;51.078;13.740;2023-04-24T12:34:17;2.17;;;1.15;;
14603;SDS011;7388;51.078;13.740;2023-04-24T12:36:45;3.15;;;1.70;;
14603;SDS011;7388;51.078;13.740;2023-04-24T12:39:15;2.40;;;1.25;;
14603;SDS011;7388;51.078;13.740;2023-04-24T12:41:56;3.33;;;1.57;;
14603;SDS011;7388;51.078;13.740;2023-04-24T12:44:32;2.00;;;1.08;;
14603;SDS011;7388;51.078;13.740;2023-04-24T12:46:59;2.80;;;1.63;;
14603;SDS011;7388;51.078;13.740;2023-04-24T12:49:26;2.10;;;1.30;;
14603;SDS011;7388;51.078;13.740;2023-04-24T12:51:53;8.80;;;1.40;;
14603;SDS011;7388;51.078;13.740;2023-04-24T12:54:19;2.30;;;1.05;;
14603;SDS011;7388;51.078;13.740;2023-04-24T12:56:45;2.17;;;1.30;;
14603;SDS011;7388;51.078;13.740;2023-04-24T12:59:10;3.27;;;0.93;;
14603;SDS011;7388;51.078;13.740;2023-04-24T13:01:36;1.47;;;0.90;;
14603;SDS011;7388;51.078;13.740;2023-04-24T13:04:02;1.90;;;1.47;;
14603;SDS011;7388;51.078;13.740;2023-04-24T13:06:27;1.83;;;1.13;;
14603;SDS011;7388;51.078;13.740;2023-04-24T13:08:53;1.67;;;1.00;;
14603;SDS011;7388;51.078;13.740;2023-04-24T13:11:20;4.40;;;1.30;;
14603;SDS011;7388;51.078;13.740;2023-04-24T13:13:47;1.87;;;1.00;;
14603;SDS011;7388;51.078;13.740;2023-04-24T13:16:12;2.53;;;1.20;;
14603;SDS011;7388;51.078;13.740;2023-04-24T13:18:38;6.23;;;1.73;;
14603;SDS011;7388;51.078;13.740;2023-04-24T13:21:04;1.73;;;1.00;;
14603;SDS011;7388;51.078;13.740;2023-04-24T13:23:30;3.20;;;1.00;;
14603;SDS011;7388;51.078;13.740;2023-04-24T13:25:55;2.03;;;1.30;;
14603;SDS011;7388;51.078;13.740;2023-04-24T13:28:26;2.57;;;1.97;;
14603;SDS011;7388;51.078;13.740;2023-04-24T13:30:52;2.03;;;1.33;;
14603;SDS011;7388;51.078;13.740;2023-04-24T13:33:18;1.97;;;1.60;;
14603;SDS011;7388;51.078;13.740;2023-04-24T13:35:44;2.10;;;1.50;;
14603;SDS011;7388;51.078;13.740;2023-04-24T13:38:10;2.30;;;1.20;;
14603;SDS011;7388;51.078;13.740;2023-04-24T13:40:35;2.57;;;1.47;;
14603;SDS011;7388;51.078;13.740;2023-04-24T13:43:02;2.73;;;1.10;;
14603;SDS011;7388;51.078;13.740;2023-04-24T13:45:28;3.00;;;1.30;;
14603;SDS011;7388;51.078;13.740;2023-04-24T13:47:54;5.63;;;1.97;;
14603;SDS011;7388;51.078;13.740;2023-04-24T13:50:21;4.30;;;1.80;;
14603;SDS011;7388;51.078;13.740;2023-04-24T13:52:47;1.40;;;1.00;;
14603;SDS011;7388;51.078;13.740;2023-04-24T13:55:13;4.50;;;1.30;;
14603;SDS011;7388;51.078;13.740;2023-04-24T13:57:39;4.93;;;1.53;;
14603;SDS011;7388;51.078;13.740;2023-04-24T14:00:05;2.63;;;1.57;;
14603;SDS011;7388;51.078;13.740;2023-04-24T14:02:34;12.10;;;1.20;;
14603;SDS011;7388;51.078;13.740;2023-04-24T14:04:59;2.40;;;1.00;;
14603;SDS011;7388;51.078;13.740;2023-04-24T14:07:25;2.80;;;1.43;;
14603;SDS011;7388;51.078;13.740;2023-04-24T14:09:51;1.53;;;1.20;;
14603;SDS011;7388;51.078;13.740;2023-04-24T14:12:17;2.23;;;1.40;;
14603;SDS011;7388;51.078;13.740;2023-04-24T14:14:45;2.13;;;1.60;;
14603;SDS011;7388;51.078;13.740;2023-04-24T14:17:13;2.47;;;1.80;;
14603;SDS011;7388;51.078;13.740;2023-04-24T14:19:39;2.90;;;1.77;;
14603;SDS011;7388;51.078;13.740;2023-04-24T14:22:04;1.50;;;1.00;;
14603;SDS011;7388;51.078;13.740;2023-04-24T14:24:30;2.43;;;1.53;;
14603;SDS011;7388;51.078;13.740;2023-04-24T14:26:56;6.13;;;2.13;;
14603;SDS011;7388;51.078;13.740;2023-04-24T14:29:22;1.80;;;1.30;;
14603;SDS011;7388;51.078;13.740;2023-04-24T14:31:47;5.27;;;1.60;;
14603;SDS011;7388;51.078;13.740;2023-04-24T14:34:13;4.10;;;1.73;;
14603;SDS011;7388;51.078;13.740;2023-04-24T14:36:40;3.07;;;1.80;;
14603;SDS011;7388;51.078;13.740;2023-04-24T14:39:05;3.57;;;1.63;;
14603;SDS011;7388;51.078;13.740;2023-04-24T14:41:32;1.83;;;1.20;;
14603;SDS011;7388;51.078;13.740;2023-04-24T14:44:01;6.53;;;1.60;;
14603;SDS011;7388;51.078;13.740;2023-04-24T14:46:28;2.57;;;1.30;;
14603;SDS011;7388;51.078;13.740;2023-04-24T14:48:55;2.80;;;1.50;;
14603;SDS011;7388;51.078;13.740;2023-04-24T14:51:21;5.10;;;2.03;;
14603;SDS011;7388;51.078;13.740;2023-04-24T14:53:47;2.50;;;1.80;;
14603;SDS011;7388;51.078;13.740;2023-04-24T14:56:13;4.30;;;1.50;;
14603;SDS011;7388;51.078;13.740;2023-04-24T14:58:40;2.20;;;1.40;;